createdAt,value
2022-12-25T00:00:48.425Z,6.63
2022-12-25T00:03:14.996Z,7.45
2022-12-25T00:05:41.421Z,6.78
2022-12-25T00:08:07.776Z,7.07
2022-12-25T00:10:44.548Z,6.93
2022-12-25T00:13:11.689Z,9.40
2022-12-25T00:15:40.985Z,6.25
2022-12-25T00:18:07.492Z,7.40
2022-12-25T00:20:34.418Z,8.00
2022-12-25T00:23:00.929Z,8.68
2022-12-25T00:25:27.534Z,9.30
2022-12-25T00:27:54.101Z,6.90
2022-12-25T00:30:20.709Z,8.52
2022-12-25T00:32:47.296Z,10.10
2022-12-25T00:35:14.811Z,10.02
2022-12-25T00:37:41.363Z,8.05
2022-12-25T00:40:08.418Z,8.80
2022-12-25T00:42:35.041Z,10.23
2022-12-25T00:45:01.673Z,8.83
2022-12-25T00:47:28.257Z,8.65
2022-12-25T00:49:55.372Z,9.35
2022-12-25T00:52:21.907Z,8.25
2022-12-25T00:54:48.411Z,9.07
2022-12-25T00:57:15.164Z,8.03
2022-12-25T00:59:41.539Z,7.68
2022-12-25T01:02:23.482Z,8.68
2022-12-25T01:04:52.606Z,8.82
2022-12-25T01:07:19.912Z,7.63
2022-12-25T01:10:05.589Z,7.93
2022-12-25T01:12:34.087Z,7.75
2022-12-25T01:15:01.047Z,8.18
2022-12-25T01:17:27.548Z,8.07
2022-12-25T01:19:54.059Z,8.73
2022-12-25T01:22:20.389Z,8.87
2022-12-25T01:24:47.083Z,8.65
2022-12-25T01:27:13.757Z,8.05
2022-12-25T01:29:40.399Z,8.05
2022-12-25T01:32:07.215Z,8.27
2022-12-25T01:34:34.408Z,8.53
2022-12-25T01:37:01.063Z,8.93
2022-12-25T01:39:27.562Z,8.07
2022-12-25T01:41:54.035Z,8.50
2022-12-25T01:44:35.637Z,8.38
2022-12-25T01:47:06.986Z,7.30
2022-12-25T01:49:38.948Z,11.60
2022-12-25T01:52:11.254Z,8.90
2022-12-25T01:54:50.616Z,9.88
2022-12-25T01:57:22.424Z,9.73
2022-12-25T01:59:49.976Z,9.60
2022-12-25T02:02:16.683Z,9.05
2022-12-25T02:04:52.121Z,10.57
2022-12-25T02:07:22.888Z,12.40
2022-12-25T02:09:50.169Z,10.50
2022-12-25T02:12:28.313Z,11.10
2022-12-25T02:15:05.001Z,8.57
2022-12-25T02:18:19.736Z,9.60
2022-12-25T02:20:59.799Z,10.55
2022-12-25T02:23:37.944Z,10.63
2022-12-25T02:26:17.456Z,8.13
2022-12-25T02:29:02.758Z,11.45
2022-12-25T02:31:43.077Z,11.07
2022-12-25T02:34:41.893Z,9.10
2022-12-25T02:37:19.467Z,6.82
2022-12-25T02:40:18.427Z,6.47
2022-12-25T02:43:23.727Z,6.20
2022-12-25T02:46:21.404Z,9.02
2022-12-25T02:49:16.679Z,6.57
2022-12-25T02:52:05.588Z,7.63
2022-12-25T02:55:00.329Z,6.23
2022-12-25T02:57:50.750Z,6.80
2022-12-25T03:00:35.870Z,7.88
2022-12-25T03:03:24.273Z,6.43
2022-12-25T03:06:15.232Z,6.57
2022-12-25T03:08:45.021Z,6.80
2022-12-25T03:11:31.140Z,7.65
2022-12-25T03:14:21.863Z,6.97
2022-12-25T03:16:53.047Z,7.07
2022-12-25T03:19:41.477Z,6.15
2022-12-25T03:22:30.841Z,7.37
2022-12-25T03:25:16.044Z,6.60
2022-12-25T03:27:44.291Z,6.78
2022-12-25T03:30:29.867Z,8.20
2022-12-25T03:33:36.782Z,7.25
2022-12-25T03:36:15.226Z,7.47
2022-12-25T03:39:16.353Z,7.82
2022-12-25T03:42:13.838Z,6.63
2022-12-25T03:45:17.527Z,8.48
2022-12-25T03:48:08.445Z,5.85
2022-12-25T03:50:59.287Z,7.13
2022-12-25T03:54:01.714Z,7.30
2022-12-25T03:56:49.298Z,7.53
2022-12-25T03:59:39.093Z,6.85
2022-12-25T04:02:24.653Z,6.72
2022-12-25T04:05:09.686Z,8.17
2022-12-25T04:07:54.927Z,10.77
2022-12-25T04:10:50.771Z,8.40
2022-12-25T04:13:35.555Z,8.95
2022-12-25T04:16:20.630Z,8.82
2022-12-25T04:19:05.561Z,8.27
2022-12-25T04:21:50.926Z,9.55
2022-12-25T04:24:36.086Z,7.60
2022-12-25T04:27:21.363Z,8.38
2022-12-25T04:30:06.543Z,9.27
2022-12-25T04:32:51.686Z,8.53
2022-12-25T04:35:36.836Z,10.43
2022-12-25T04:38:03.362Z,8.63
2022-12-25T04:40:29.914Z,8.45
2022-12-25T04:42:56.453Z,8.75
2022-12-25T04:45:23.171Z,8.47
2022-12-25T04:47:49.704Z,8.30
2022-12-25T04:50:16.303Z,8.52
2022-12-25T04:52:42.802Z,11.18
2022-12-25T04:55:10.498Z,8.65
2022-12-25T04:57:36.893Z,9.00
2022-12-25T05:00:05.638Z,8.30
2022-12-25T05:02:32.599Z,9.63
2022-12-25T05:04:59.076Z,9.23
2022-12-25T05:07:25.440Z,10.80
2022-12-25T05:09:51.922Z,9.60
2022-12-25T05:12:18.432Z,8.40
2022-12-25T05:14:44.919Z,8.60
2022-12-25T05:17:11.399Z,8.77
2022-12-25T05:19:37.732Z,9.23
2022-12-25T05:22:04.303Z,8.87
2022-12-25T05:24:30.962Z,9.02
2022-12-25T05:26:57.531Z,9.68
2022-12-25T05:29:24.024Z,8.68
2022-12-25T05:31:50.651Z,9.70
2022-12-25T05:34:17.227Z,7.40
2022-12-25T05:36:43.752Z,8.43
2022-12-25T05:39:10.124Z,7.63
2022-12-25T05:41:36.621Z,7.57
2022-12-25T05:44:05.966Z,7.55
2022-12-25T05:46:32.524Z,8.00
2022-12-25T05:48:59.087Z,8.80
2022-12-25T05:51:26.220Z,7.28
2022-12-25T05:53:52.721Z,8.77
2022-12-25T05:56:19.218Z,7.57
2022-12-25T05:58:45.553Z,9.87
2022-12-25T06:01:14.671Z,6.78
2022-12-25T06:03:41.326Z,9.15
2022-12-25T06:06:08.254Z,8.77
2022-12-25T06:08:35.202Z,10.10
2022-12-25T06:11:06.841Z,7.63
2022-12-25T06:13:34.643Z,8.43
2022-12-25T06:16:08.968Z,8.05
2022-12-25T06:18:41.127Z,10.02
2022-12-25T06:21:12.433Z,9.10
2022-12-25T06:23:39.839Z,11.73
2022-12-25T06:26:12.741Z,10.00
2022-12-25T06:28:39.267Z,10.32
2022-12-25T06:31:24.713Z,8.88
2022-12-25T06:33:51.579Z,12.38
2022-12-25T06:36:25.844Z,10.97
2022-12-25T06:38:53.581Z,9.35
2022-12-25T06:41:22.669Z,10.52
2022-12-25T06:43:54.508Z,9.38
2022-12-25T06:46:22.279Z,9.80
2022-12-25T06:48:49.979Z,11.43
2022-12-25T06:51:18.319Z,9.73
2022-12-25T06:53:45.081Z,10.50
2022-12-25T06:56:15.669Z,10.88
2022-12-25T06:58:51.122Z,10.68
2022-12-25T07:01:27.244Z,10.10
2022-12-25T07:03:57.403Z,12.15
2022-12-25T07:06:24.120Z,11.85
2022-12-25T07:08:50.615Z,10.77
2022-12-25T07:11:17.315Z,11.10
2022-12-25T07:13:43.991Z,14.23
2022-12-25T07:16:12.215Z,13.77
2022-12-25T07:18:39.005Z,10.50
2022-12-25T07:21:10.867Z,13.10
2022-12-25T07:23:37.457Z,11.00
2022-12-25T07:26:04.624Z,11.63
2022-12-25T07:28:31.729Z,11.75
2022-12-25T07:31:03.199Z,13.18
2022-12-25T07:33:29.810Z,12.15
2022-12-25T07:35:56.375Z,12.98
2022-12-25T07:38:22.743Z,12.50
2022-12-25T07:40:49.273Z,11.63
2022-12-25T07:43:15.978Z,9.55
2022-12-25T07:45:42.606Z,9.85
2022-12-25T07:48:15.296Z,10.77
2022-12-25T07:50:43.156Z,10.97
2022-12-25T07:53:09.643Z,13.00
2022-12-25T07:55:36.208Z,12.60
2022-12-25T07:58:02.642Z,16.13
2022-12-25T08:00:32.786Z,14.52
2022-12-25T08:03:00.163Z,13.23
2022-12-25T08:05:26.975Z,14.55
2022-12-25T08:07:57.767Z,17.75
2022-12-25T08:10:24.752Z,13.50
2022-12-25T08:12:52.140Z,16.17
2022-12-25T08:15:18.670Z,14.23
2022-12-25T08:17:45.059Z,15.80
2022-12-25T08:20:11.969Z,13.93
2022-12-25T08:22:38.449Z,13.60
2022-12-25T08:25:05.256Z,14.05
2022-12-25T08:27:32.027Z,15.83
2022-12-25T08:29:58.630Z,13.77
2022-12-25T08:32:25.338Z,12.52
2022-12-25T08:34:51.841Z,15.77
2022-12-25T08:37:18.425Z,17.88
2022-12-25T08:39:44.966Z,13.23
2022-12-25T08:42:11.493Z,12.27
2022-12-25T08:44:38.093Z,10.57
2022-12-25T08:47:04.865Z,13.77
2022-12-25T08:49:31.407Z,10.85
2022-12-25T08:51:58.049Z,12.23
2022-12-25T08:54:25.326Z,11.48
2022-12-25T08:56:53.334Z,16.98
2022-12-25T08:59:21.661Z,12.45
2022-12-25T09:01:48.119Z,11.05
2022-12-25T09:04:15.045Z,9.40
2022-12-25T09:06:41.517Z,9.63
2022-12-25T09:09:07.892Z,10.50
2022-12-25T09:11:34.472Z,11.93
2022-12-25T09:14:00.995Z,10.15
2022-12-25T09:16:27.774Z,10.37
2022-12-25T09:18:56.500Z,11.48
2022-12-25T09:21:23.016Z,10.05
2022-12-25T09:23:49.547Z,10.43
2022-12-25T09:26:18.334Z,10.63
2022-12-25T09:28:50.539Z,8.57
2022-12-25T09:31:18.958Z,8.85
2022-12-25T09:33:45.385Z,9.93
2022-12-25T09:36:12.209Z,9.75
2022-12-25T09:38:38.779Z,9.40
2022-12-25T09:41:47.312Z,9.07
2022-12-25T09:44:20.697Z,8.13
2022-12-25T09:46:53.169Z,10.35
2022-12-25T09:49:35.716Z,9.15
2022-12-25T09:52:11.929Z,10.52
2022-12-25T09:54:58.400Z,10.60
2022-12-25T09:57:26.235Z,10.85
2022-12-25T09:59:56.430Z,10.80
2022-12-25T10:02:45.980Z,10.68
2022-12-25T10:05:40.849Z,8.20
2022-12-25T10:08:47.441Z,8.33
2022-12-25T10:11:16.987Z,9.25
2022-12-25T10:14:02.086Z,9.45
2022-12-25T10:16:38.256Z,9.40
2022-12-25T10:19:17.768Z,8.00
2022-12-25T10:21:44.442Z,8.70
2022-12-25T10:24:35.885Z,9.13
2022-12-25T10:27:14.809Z,8.52
2022-12-25T10:29:42.638Z,8.90
2022-12-25T10:32:10.464Z,8.80
2022-12-25T10:34:40.986Z,8.77
2022-12-25T10:37:10.491Z,12.95
2022-12-25T10:39:42.337Z,12.35
2022-12-25T10:42:30.751Z,10.48
2022-12-25T10:45:03.367Z,8.70
2022-12-25T10:47:32.821Z,7.50
2022-12-25T10:50:01.185Z,8.43
2022-12-25T10:52:29.072Z,8.57
2022-12-25T10:54:56.387Z,8.43
2022-12-25T10:57:25.047Z,8.50
2022-12-25T10:59:56.908Z,8.53
2022-12-25T11:02:27.815Z,8.88
2022-12-25T11:05:07.308Z,9.52
2022-12-25T11:07:46.756Z,8.63
2022-12-25T11:10:34.601Z,8.40
2022-12-25T11:13:02.628Z,7.63
2022-12-25T11:15:43.135Z,9.10
2022-12-25T11:18:19.166Z,7.50
2022-12-25T11:20:54.044Z,7.32
2022-12-25T11:23:22.519Z,6.72
2022-12-25T11:25:56.350Z,7.30
2022-12-25T11:28:24.246Z,7.45
2022-12-25T11:30:56.549Z,7.28
2022-12-25T11:33:29.150Z,6.70
2022-12-25T11:35:58.070Z,7.93
2022-12-25T11:38:25.338Z,7.17
2022-12-25T11:40:55.242Z,7.00
2022-12-25T11:43:23.411Z,6.03
2022-12-25T11:46:08.818Z,8.57
2022-12-25T11:48:43.029Z,7.18
2022-12-25T11:51:09.969Z,8.07
2022-12-25T11:53:52.776Z,9.00
2022-12-25T11:56:23.204Z,8.45
2022-12-25T11:58:55.369Z,7.32
2022-12-25T12:01:37.144Z,5.78
2022-12-25T12:04:12.294Z,7.53
2022-12-25T12:07:00.534Z,7.47
2022-12-25T12:10:05.590Z,6.30
2022-12-25T12:13:06.087Z,7.03
2022-12-25T12:15:43.690Z,6.38
2022-12-25T12:18:21.079Z,7.40
2022-12-25T12:21:03.042Z,6.95
2022-12-25T12:23:33.071Z,7.07
2022-12-25T12:26:00.508Z,9.32
2022-12-25T12:28:37.134Z,7.10
2022-12-25T12:31:08.370Z,7.43
2022-12-25T12:33:43.820Z,7.55
2022-12-25T12:36:14.682Z,7.70
2022-12-25T12:38:43.673Z,8.23
2022-12-25T12:41:12.531Z,7.45
2022-12-25T12:43:43.128Z,7.03
2022-12-25T12:46:30.604Z,6.32
2022-12-25T12:49:17.673Z,6.25
2022-12-25T12:51:44.522Z,6.97
2022-12-25T12:54:23.348Z,7.85
2022-12-25T12:57:05.095Z,7.03
2022-12-25T12:59:43.555Z,6.65
2022-12-25T13:02:25.198Z,6.55
2022-12-25T13:05:08.134Z,6.75
2022-12-25T13:07:56.585Z,7.53
2022-12-25T13:10:33.940Z,7.83
2022-12-25T13:13:12.302Z,6.70
2022-12-25T13:15:39.428Z,6.47
2022-12-25T13:18:09.787Z,7.05
2022-12-25T13:20:55.013Z,8.13
2022-12-25T13:23:33.406Z,7.43
2022-12-25T13:26:06.128Z,7.15
2022-12-25T13:28:36.863Z,8.45
2022-12-25T13:31:06.142Z,8.25
2022-12-25T13:33:33.493Z,8.20
2022-12-25T13:36:00.032Z,7.13
2022-12-25T13:38:28.761Z,7.75
2022-12-25T13:41:15.530Z,6.30
2022-12-25T13:43:44.180Z,6.05
2022-12-25T13:46:15.711Z,6.10
2022-12-25T13:48:42.975Z,7.33
2022-12-25T13:51:16.159Z,7.10
2022-12-25T13:53:43.809Z,7.10
2022-12-25T13:56:15.591Z,6.93
2022-12-25T13:58:43.127Z,6.43
2022-12-25T14:01:11.748Z,6.07
2022-12-25T14:03:46.617Z,6.40
2022-12-25T14:06:30.304Z,6.35
2022-12-25T14:08:58.772Z,6.60
2022-12-25T14:11:28.361Z,6.38
2022-12-25T14:14:00.854Z,5.10
2022-12-25T14:16:28.316Z,5.25
2022-12-25T14:18:58.189Z,6.47
2022-12-25T14:21:38.666Z,6.38
2022-12-25T14:24:21.126Z,6.25
2022-12-25T14:26:47.693Z,5.57
2022-12-25T14:29:23.669Z,6.00
2022-12-25T14:31:53.254Z,6.20
2022-12-25T14:34:26.284Z,6.97
2022-12-25T14:36:53.356Z,6.68
2022-12-25T14:39:28.299Z,7.13
2022-12-25T14:41:54.718Z,5.95
2022-12-25T14:44:32.464Z,8.23
2022-12-25T14:47:15.596Z,11.27
2022-12-25T14:49:42.753Z,7.05
2022-12-25T14:52:18.042Z,6.90
2022-12-25T14:54:47.002Z,6.82
2022-12-25T14:57:20.223Z,6.97
2022-12-25T14:59:46.862Z,7.30
2022-12-25T15:02:19.388Z,8.55
2022-12-25T15:04:46.068Z,8.77
2022-12-25T15:07:28.797Z,8.07
2022-12-25T15:10:18.494Z,6.90
2022-12-25T15:12:41.961Z,6.30
2022-12-25T15:15:08.939Z,7.60
2022-12-25T15:17:42.115Z,7.60
2022-12-25T15:20:12.931Z,7.70
2022-12-25T15:23:10.102Z,6.95
2022-12-25T15:25:27.079Z,10.63
2022-12-25T15:27:53.647Z,9.38
2022-12-25T15:30:20.046Z,8.90
2022-12-25T15:32:46.898Z,10.57
2022-12-25T15:35:16.087Z,8.88
2022-12-25T15:37:42.654Z,7.90
2022-12-25T15:40:13.370Z,8.13
2022-12-25T15:42:41.070Z,8.37
2022-12-25T15:45:19.610Z,9.30
2022-12-25T15:47:47.642Z,9.05
2022-12-25T15:50:15.197Z,7.57
2022-12-25T15:52:42.257Z,8.88
2022-12-25T15:55:09.670Z,8.27
2022-12-25T15:57:37.882Z,8.07
2022-12-25T16:00:06.215Z,8.27
2022-12-25T16:02:32.950Z,7.22
2022-12-25T16:04:59.697Z,7.90
2022-12-25T16:07:27.562Z,9.03
2022-12-25T16:09:53.885Z,8.25
2022-12-25T16:12:20.853Z,8.57
2022-12-25T16:14:47.448Z,7.72
2022-12-25T16:17:15.419Z,8.30
2022-12-25T16:19:42.894Z,10.60
2022-12-25T16:22:14.301Z,9.57
2022-12-25T16:24:40.891Z,7.88
2022-12-25T16:27:07.464Z,9.40
2022-12-25T16:29:34.049Z,9.90
2022-12-25T16:32:00.624Z,10.03
2022-12-25T16:34:26.987Z,9.18
2022-12-25T16:36:53.576Z,11.30
2022-12-25T16:39:20.086Z,9.07
2022-12-25T16:41:46.572Z,8.32
2022-12-25T16:44:14.137Z,9.03
2022-12-25T16:46:40.972Z,9.07
2022-12-25T16:49:07.552Z,10.07
2022-12-25T16:51:34.215Z,10.82
2022-12-25T16:54:00.754Z,9.90
2022-12-25T16:56:28.660Z,11.20
2022-12-25T16:58:57.729Z,11.73
2022-12-25T17:01:25.221Z,9.35
2022-12-25T17:03:52.243Z,9.98
2022-12-25T17:06:23.325Z,9.40
2022-12-25T17:08:52.093Z,11.30
2022-12-25T17:11:23.558Z,10.90
2022-12-25T17:13:50.322Z,9.80
2022-12-25T17:16:20.156Z,11.70
2022-12-25T17:18:47.060Z,12.80
2022-12-25T17:21:14.844Z,11.27
2022-12-25T17:23:41.462Z,14.43
2022-12-25T17:26:08.054Z,14.15
2022-12-25T17:28:34.717Z,13.57
2022-12-25T17:31:09.597Z,14.00
2022-12-25T17:33:37.116Z,15.77
2022-12-25T17:36:06.364Z,14.60
2022-12-25T17:38:33.720Z,13.30
2022-12-25T17:41:02.947Z,15.23
2022-12-25T17:43:29.525Z,17.60
2022-12-25T17:45:55.867Z,16.63
2022-12-25T17:48:22.209Z,16.25
2022-12-25T17:50:48.860Z,15.73
2022-12-25T17:53:15.431Z,14.60
2022-12-25T17:55:42.342Z,17.52
2022-12-25T17:58:09.224Z,21.57
2022-12-25T18:00:37.308Z,20.70
2022-12-25T18:03:10.794Z,17.63
2022-12-25T18:05:38.235Z,16.75
2022-12-25T18:08:05.448Z,15.50
2022-12-25T18:10:37.073Z,17.70
2022-12-25T18:13:03.815Z,17.92
2022-12-25T18:15:30.296Z,19.75
2022-12-25T18:17:56.694Z,16.95
2022-12-25T18:20:23.538Z,19.77
2022-12-25T18:22:49.891Z,17.17
2022-12-25T18:25:16.256Z,19.02
2022-12-25T18:27:42.600Z,22.33
2022-12-25T18:30:10.033Z,20.38
2022-12-25T18:32:36.619Z,23.75
2022-12-25T18:35:03.359Z,24.97
2022-12-25T18:37:33.144Z,24.48
2022-12-25T18:40:04.626Z,21.75
2022-12-25T18:42:39.962Z,22.35
2022-12-25T18:45:09.059Z,23.95
2022-12-25T18:47:37.714Z,26.33
2022-12-25T18:50:05.807Z,23.02
2022-12-25T18:52:47.643Z,24.95
2022-12-25T18:55:17.672Z,22.92
2022-12-25T18:57:44.083Z,25.67
2022-12-25T19:00:10.808Z,27.53
2022-12-25T19:02:37.509Z,25.50
2022-12-25T19:05:05.587Z,23.42
2022-12-25T19:07:32.263Z,23.15
2022-12-25T19:09:58.921Z,21.42
2022-12-25T19:12:25.300Z,25.20
2022-12-25T19:14:51.769Z,29.50
2022-12-25T19:17:19.715Z,27.25
2022-12-25T19:19:46.088Z,35.08
2022-12-25T19:22:20.494Z,30.35
2022-12-25T19:24:46.871Z,27.43
2022-12-25T19:27:13.389Z,26.13
2022-12-25T19:29:41.075Z,30.00
2022-12-25T19:32:07.515Z,24.80
2022-12-25T19:34:35.703Z,25.33
2022-12-25T19:37:03.666Z,21.70
2022-12-25T19:39:29.967Z,28.80
2022-12-25T19:41:57.926Z,24.92
2022-12-25T19:44:24.586Z,22.73
2022-12-25T19:46:50.961Z,26.85
2022-12-25T19:49:17.622Z,24.17
2022-12-25T19:51:47.459Z,23.60
2022-12-25T19:54:15.804Z,26.30
2022-12-25T19:56:43.703Z,31.50
2022-12-25T19:59:12.283Z,24.98
2022-12-25T20:01:40.994Z,25.60
2022-12-25T20:04:09.520Z,26.30
2022-12-25T20:06:38.381Z,27.63
2022-12-25T20:09:15.028Z,27.85
2022-12-25T20:11:42.013Z,21.20
2022-12-25T20:14:10.217Z,21.40
2022-12-25T20:16:38.444Z,17.05
2022-12-25T20:19:07.566Z,20.90
2022-12-25T20:21:34.233Z,21.13
2022-12-25T20:24:01.208Z,19.60
2022-12-25T20:26:30.004Z,18.63
2022-12-25T20:28:57.370Z,20.55
2022-12-25T20:31:27.264Z,24.90
2022-12-25T20:34:00.009Z,16.88
2022-12-25T20:36:36.454Z,17.23
2022-12-25T20:39:05.195Z,15.47
2022-12-25T20:41:32.078Z,15.27
2022-12-25T20:44:01.865Z,13.63
2022-12-25T20:46:28.825Z,18.50
2022-12-25T20:48:55.487Z,15.68
2022-12-25T20:51:24.544Z,18.30
2022-12-25T20:53:51.403Z,16.25
2022-12-25T20:56:21.166Z,15.27
2022-12-25T20:58:49.028Z,14.38
2022-12-25T21:01:18.640Z,14.88
2022-12-25T21:03:46.632Z,16.77
2022-12-25T21:06:14.265Z,15.80
2022-12-25T21:08:41.149Z,19.45
2022-12-25T21:11:08.546Z,18.42
2022-12-25T21:13:37.867Z,18.10
2022-12-25T21:16:07.378Z,16.77
2022-12-25T21:18:33.985Z,18.40
2022-12-25T21:21:04.678Z,17.48
2022-12-25T21:23:32.073Z,15.75
2022-12-25T21:25:58.980Z,19.15
2022-12-25T21:28:30.091Z,19.53
2022-12-25T21:31:02.397Z,18.15
2022-12-25T21:33:47.767Z,18.15
2022-12-25T21:36:14.169Z,17.52
2022-12-25T21:38:41.888Z,16.40
2022-12-25T21:41:13.152Z,17.40
2022-12-25T21:43:44.784Z,16.38
2022-12-25T21:46:15.377Z,17.05
2022-12-25T21:48:42.582Z,16.90
2022-12-25T21:51:35.698Z,15.50
2022-12-25T21:54:02.755Z,15.23
2022-12-25T21:56:30.838Z,14.63
2022-12-25T21:59:02.630Z,15.02
2022-12-25T22:01:30.071Z,14.90
2022-12-25T22:04:01.657Z,13.82
2022-12-25T22:06:46.955Z,12.60
2022-12-25T22:09:13.455Z,11.02
2022-12-25T22:11:58.440Z,12.32
2022-12-25T22:14:51.102Z,11.15
2022-12-25T22:17:49.957Z,12.07
2022-12-25T22:20:21.423Z,10.50
2022-12-25T22:22:48.657Z,11.68
2022-12-25T22:25:15.576Z,10.63
2022-12-25T22:27:44.195Z,11.75
2022-12-25T22:30:34.367Z,10.90
2022-12-25T22:33:02.416Z,10.33
2022-12-25T22:35:28.783Z,10.68
2022-12-25T22:37:55.476Z,10.02
2022-12-25T22:40:21.983Z,10.00
2022-12-25T22:42:48.856Z,11.13
2022-12-25T22:45:15.727Z,10.43
2022-12-25T22:47:45.584Z,10.85
2022-12-25T22:50:14.479Z,11.80
2022-12-25T22:52:41.032Z,11.45
2022-12-25T22:55:09.832Z,12.00
2022-12-25T22:57:39.629Z,24.97
2022-12-25T23:00:08.683Z,23.75
2022-12-25T23:02:36.960Z,28.42
2022-12-25T23:05:06.271Z,16.30
2022-12-25T23:07:32.982Z,18.83
2022-12-25T23:10:01.462Z,20.07
2022-12-25T23:12:47.430Z,19.85
2022-12-25T23:15:14.127Z,14.00
2022-12-25T23:17:58.896Z,14.10
2022-12-25T23:20:44.445Z,10.38
2022-12-25T23:23:35.667Z,9.33
2022-12-25T23:26:09.207Z,10.88
2022-12-25T23:29:00.220Z,11.00
2022-12-25T23:31:35.877Z,14.05
2022-12-25T23:34:06.159Z,11.02
2022-12-25T23:36:33.155Z,9.13
2022-12-25T23:39:06.726Z,9.88
2022-12-25T23:41:35.913Z,8.75
2022-12-25T23:44:02.398Z,9.63
2022-12-25T23:46:28.990Z,9.45
2022-12-25T23:48:55.575Z,9.27
2022-12-25T23:51:22.091Z,10.10
2022-12-25T23:53:48.696Z,9.75
2022-12-25T23:56:15.345Z,9.43
2022-12-25T23:58:41.925Z,10.90
